sensor_id;sensor_type;location;lat;lon;timestamp;pressure;altitude;pressure_sealevel;temperature;humidity
63447;BME280;49577;49.872;6.190;2023-03-16T00:01:41;99813.04;;;0.29;78.22
63447;BME280;49577;49.872;6.190;2023-03-16T00:04:07;99809.79;;;0.29;78.33
63447;BME280;49577;49.872;6.190;2023-03-16T00:06:32;99807.88;;;0.29;78.38
63447;BME280;49577;49.872;6.190;2023-03-16T00:08:57;99812.48;;;0.31;78.38
63447;BME280;49577;49.872;6.190;2023-03-16T00:11:26;99815.35;;;0.34;78.42
63447;BME280;49577;49.872;6.190;2023-03-16T00:13:52;99814.45;;;0.35;78.24
63447;BME280;49577;49.872;6.190;2023-03-16T00:16:18;99812.91;;;0.37;78.49
63447;BME280;49577;49.872;6.190;2023-03-16T00:18:43;99812.20;;;0.37;78.28
63447;BME280;49577;49.872;6.190;2023-03-16T00:21:09;99809.54;;;0.32;78.24
63447;BME280;49577;49.872;6.190;2023-03-16T00:23:35;99803.30;;;0.26;78.23
63447;BME280;49577;49.872;6.190;2023-03-16T00:26:07;99799.61;;;0.20;78.59
63447;BME280;49577;49.872;6.190;2023-03-16T00:28:34;99795.07;;;0.15;78.60
63447;BME280;49577;49.872;6.190;2023-03-16T00:31:04;99793.98;;;0.09;78.57
63447;BME280;49577;49.872;6.190;2023-03-16T00:33:30;99798.22;;;0.02;78.55
63447;BME280;49577;49.872;6.190;2023-03-16T00:35:59;99798.30;;;-0.03;78.84
63447;BME280;49577;49.872;6.190;2023-03-16T00:38:31;99806.22;;;-0.06;78.98
63447;BME280;49577;49.872;6.190;2023-03-16T00:40:56;99803.85;;;-0.07;79.14
63447;BME280;49577;49.872;6.190;2023-03-16T00:43:22;99803.37;;;-0.09;78.97
63447;BME280;49577;49.872;6.190;2023-03-16T00:45:47;99802.21;;;-0.12;79.35
63447;BME280;49577;49.872;6.190;2023-03-16T00:48:13;99806.02;;;-0.14;79.24
63447;BME280;49577;49.872;6.190;2023-03-16T00:50:38;99799.02;;;-0.16;79.24
63447;BME280;49577;49.872;6.190;2023-03-16T00:53:04;99797.34;;;-0.17;79.38
63447;BME280;49577;49.872;6.190;2023-03-16T00:55:30;99800.24;;;-0.18;79.39
63447;BME280;49577;49.872;6.190;2023-03-16T00:57:56;99803.00;;;-0.19;79.34
63447;BME280;49577;49.872;6.190;2023-03-16T01:00:22;99805.77;;;-0.20;79.50
63447;BME280;49577;49.872;6.190;2023-03-16T01:02:50;99802.52;;;-0.20;79.75
63447;BME280;49577;49.872;6.190;2023-03-16T01:05:16;99802.17;;;-0.20;79.73
63447;BME280;49577;49.872;6.190;2023-03-16T01:07:41;99798.02;;;-0.18;79.83
63447;BME280;49577;49.872;6.190;2023-03-16T01:10:08;99795.39;;;-0.15;80.07
63447;BME280;49577;49.872;6.190;2023-03-16T01:12:34;99788.48;;;-0.12;79.87
63447;BME280;49577;49.872;6.190;2023-03-16T01:14:59;99786.27;;;-0.12;79.89
63447;BME280;49577;49.872;6.190;2023-03-16T01:17:25;99787.23;;;-0.09;79.98
63447;BME280;49577;49.872;6.190;2023-03-16T01:19:51;99786.45;;;-0.03;80.19
63447;BME280;49577;49.872;6.190;2023-03-16T01:22:16;99779.14;;;0.02;80.03
63447;BME280;49577;49.872;6.190;2023-03-16T01:24:43;99776.66;;;0.07;80.19
63447;BME280;49577;49.872;6.190;2023-03-16T01:27:12;99776.22;;;0.11;79.87
63447;BME280;49577;49.872;6.190;2023-03-16T01:29:38;99777.36;;;0.16;79.89
63447;BME280;49577;49.872;6.190;2023-03-16T01:32:05;99775.06;;;0.20;79.83
63447;BME280;49577;49.872;6.190;2023-03-16T01:34:31;99772.92;;;0.23;79.72
63447;BME280;49577;49.872;6.190;2023-03-16T01:36:57;99770.27;;;0.28;79.78
63447;BME280;49577;49.872;6.190;2023-03-16T01:39:23;99761.67;;;0.29;79.36
63447;BME280;49577;49.872;6.190;2023-03-16T01:41:49;99758.94;;;0.28;79.23
63447;BME280;49577;49.872;6.190;2023-03-16T01:44:17;99755.69;;;0.27;79.54
63447;BME280;49577;49.872;6.190;2023-03-16T01:46:44;99755.34;;;0.26;79.30
63447;BME280;49577;49.872;6.190;2023-03-16T01:49:21;99747.31;;;0.24;79.56
63447;BME280;49577;49.872;6.190;2023-03-16T01:57:00;99745.73;;;0.35;79.58
63447;BME280;49577;49.872;6.190;2023-03-16T01:59:39;99745.57;;;0.35;79.47
63447;BME280;49577;49.872;6.190;2023-03-16T02:02:07;99745.44;;;0.33;79.58
63447;BME280;49577;49.872;6.190;2023-03-16T02:05:09;99746.65;;;0.32;79.65
63447;BME280;49577;49.872;6.190;2023-03-16T02:07:42;99737.56;;;0.31;79.80
63447;BME280;49577;49.872;6.190;2023-03-16T02:10:09;99736.52;;;0.32;79.82
63447;BME280;49577;49.872;6.190;2023-03-16T02:12:36;99734.80;;;0.32;79.95
63447;BME280;49577;49.872;6.190;2023-03-16T02:15:02;99733.75;;;0.33;79.79
63447;BME280;49577;49.872;6.190;2023-03-16T02:17:30;99730.44;;;0.35;79.97
63447;BME280;49577;49.872;6.190;2023-03-16T02:20:11;99730.25;;;0.37;79.92
63447;BME280;49577;49.872;6.190;2023-03-16T02:22:44;99724.38;;;0.38;80.05
63447;BME280;49577;49.872;6.190;2023-03-16T02:25:11;99715.61;;;0.38;79.99
63447;BME280;49577;49.872;6.190;2023-03-16T02:27:55;99709.93;;;0.38;79.97
63447;BME280;49577;49.872;6.190;2023-03-16T02:30:25;99704.95;;;0.39;79.95
63447;BME280;49577;49.872;6.190;2023-03-16T02:32:51;99704.59;;;0.39;80.04
63447;BME280;49577;49.872;6.190;2023-03-16T02:35:18;99700.79;;;0.40;80.22
63447;BME280;49577;49.872;6.190;2023-03-16T02:37:43;99695.40;;;0.43;80.44
63447;BME280;49577;49.872;6.190;2023-03-16T02:40:27;99698.05;;;0.48;80.34
63447;BME280;49577;49.872;6.190;2023-03-16T02:42:59;99698.76;;;0.56;80.42
63447;BME280;49577;49.872;6.190;2023-03-16T02:45:39;99694.35;;;0.61;80.36
63447;BME280;49577;49.872;6.190;2023-03-16T02:48:10;99694.11;;;0.64;80.44
63447;BME280;49577;49.872;6.190;2023-03-16T02:50:44;99696.27;;;0.68;80.22
63447;BME280;49577;49.872;6.190;2023-03-16T02:53:12;99690.69;;;0.71;80.18
63447;BME280;49577;49.872;6.190;2023-03-16T02:55:37;99691.17;;;0.73;80.11
63447;BME280;49577;49.872;6.190;2023-03-16T02:58:03;99687.35;;;0.74;80.04
63447;BME280;49577;49.872;6.190;2023-03-16T03:00:28;99679.31;;;0.73;79.75
63447;BME280;49577;49.872;6.190;2023-03-16T03:02:54;99677.11;;;0.71;79.74
63447;BME280;49577;49.872;6.190;2023-03-16T03:05:19;99677.47;;;0.70;80.06
63447;BME280;49577;49.872;6.190;2023-03-16T03:07:45;99677.14;;;0.70;79.85
63447;BME280;49577;49.872;6.190;2023-03-16T03:10:11;99676.67;;;0.68;79.95
63447;BME280;49577;49.872;6.190;2023-03-16T03:12:36;99676.50;;;0.68;80.05
63447;BME280;49577;49.872;6.190;2023-03-16T03:15:02;99678.23;;;0.66;80.06
63447;BME280;49577;49.872;6.190;2023-03-16T03:17:28;99678.07;;;0.66;80.05
63447;BME280;49577;49.872;6.190;2023-03-16T03:19:57;99676.40;;;0.65;80.25
63447;BME280;49577;49.872;6.190;2023-03-16T03:22:23;99676.05;;;0.65;80.34
63447;BME280;49577;49.872;6.190;2023-03-16T03:24:50;99679.81;;;0.65;80.40
63447;BME280;49577;49.872;6.190;2023-03-16T03:27:16;99674.63;;;0.67;80.56
63447;BME280;49577;49.872;6.190;2023-03-16T03:29:41;99670.15;;;0.68;80.66
63447;BME280;49577;49.872;6.190;2023-03-16T03:32:07;99665.44;;;0.70;80.92
63447;BME280;49577;49.872;6.190;2023-03-16T03:34:32;99662.15;;;0.70;80.79
63447;BME280;49577;49.872;6.190;2023-03-16T03:36:58;99658.94;;;0.69;80.72
63447;BME280;49577;49.872;6.190;2023-03-16T03:39:23;99657.96;;;0.66;80.89
63447;BME280;49577;49.872;6.190;2023-03-16T03:41:49;99654.89;;;0.65;80.93
63447;BME280;49577;49.872;6.190;2023-03-16T03:44:21;99650.41;;;0.65;81.01
63447;BME280;49577;49.872;6.190;2023-03-16T03:46:47;99649.22;;;0.65;81.11
63447;BME280;49577;49.872;6.190;2023-03-16T03:49:13;99647.38;;;0.63;81.13
63447;BME280;49577;49.872;6.190;2023-03-16T03:51:39;99645.50;;;0.61;81.23
63447;BME280;49577;49.872;6.190;2023-03-16T03:54:05;99640.20;;;0.61;81.34
63447;BME280;49577;49.872;6.190;2023-03-16T03:56:30;99641.90;;;0.61;81.48
63447;BME280;49577;49.872;6.190;2023-03-16T03:58:56;99637.64;;;0.60;81.35
63447;BME280;49577;49.872;6.190;2023-03-16T04:01:21;99636.12;;;0.59;81.42
63447;BME280;49577;49.872;6.190;2023-03-16T04:03:47;99636.31;;;0.57;81.45
63447;BME280;49577;49.872;6.190;2023-03-16T04:06:13;99633.62;;;0.55;81.41
63447;BME280;49577;49.872;6.190;2023-03-16T04:08:38;99633.48;;;0.54;81.57
63447;BME280;49577;49.872;6.190;2023-03-16T04:11:04;99636.44;;;0.52;81.59
63447;BME280;49577;49.872;6.190;2023-03-16T04:13:29;99634.06;;;0.51;81.82
63447;BME280;49577;49.872;6.190;2023-03-16T04:16:01;99631.16;;;0.50;81.70
63447;BME280;49577;49.872;6.190;2023-03-16T04:18:27;99632.02;;;0.50;82.07
63447;BME280;49577;49.872;6.190;2023-03-16T04:20:52;99630.43;;;0.51;82.02
63447;BME280;49577;49.872;6.190;2023-03-16T04:23:18;99630.46;;;0.50;81.91
63447;BME280;49577;49.872;6.190;2023-03-16T04:25:44;99627.20;;;0.50;81.96
63447;BME280;49577;49.872;6.190;2023-03-16T04:28:10;99626.52;;;0.49;81.92
63447;BME280;49577;49.872;6.190;2023-03-16T04:30:36;99625.48;;;0.49;82.18
63447;BME280;49577;49.872;6.190;2023-03-16T04:33:01;99624.21;;;0.53;82.23
63447;BME280;49577;49.872;6.190;2023-03-16T04:35:26;99627.09;;;0.55;82.14
63447;BME280;49577;49.872;6.190;2023-03-16T04:37:52;99624.95;;;0.58;82.16
63447;BME280;49577;49.872;6.190;2023-03-16T04:40:17;99621.80;;;0.61;82.03
63447;BME280;49577;49.872;6.190;2023-03-16T04:42:44;99622.45;;;0.63;82.30
63447;BME280;49577;49.872;6.190;2023-03-16T04:45:10;99621.54;;;0.65;82.12
63447;BME280;49577;49.872;6.190;2023-03-16T04:47:36;99619.78;;;0.66;82.14
63447;BME280;49577;49.872;6.190;2023-03-16T04:50:02;99617.20;;;0.67;82.15
63447;BME280;49577;49.872;6.190;2023-03-16T04:52:28;99615.95;;;0.69;82.18
63447;BME280;49577;49.872;6.190;2023-03-16T04:54:53;99614.88;;;0.71;82.02
63447;BME280;49577;49.872;6.190;2023-03-16T04:57:19;99613.67;;;0.70;82.05
63447;BME280;49577;49.872;6.190;2023-03-16T04:59:44;99611.64;;;0.69;81.98
63447;BME280;49577;49.872;6.190;2023-03-16T05:02:10;99606.29;;;0.70;82.17
63447;BME280;49577;49.872;6.190;2023-03-16T05:04:35;99604.02;;;0.71;82.15
63447;BME280;49577;49.872;6.190;2023-03-16T05:07:01;99610.34;;;0.74;82.22
63447;BME280;49577;49.872;6.190;2023-03-16T05:09:26;99604.61;;;0.76;82.33
63447;BME280;49577;49.872;6.190;2023-03-16T05:11:51;99600.13;;;0.77;82.19
63447;BME280;49577;49.872;6.190;2023-03-16T05:14:16;99598.94;;;0.77;82.15
63447;BME280;49577;49.872;6.190;2023-03-16T05:16:42;99598.06;;;0.77;82.14
63447;BME280;49577;49.872;6.190;2023-03-16T05:19:07;99602.87;;;0.78;82.18
63447;BME280;49577;49.872;6.190;2023-03-16T05:21:32;99597.54;;;0.78;82.08
63447;BME280;49577;49.872;6.190;2023-03-16T05:23:59;99597.18;;;0.79;82.33
63447;BME280;49577;49.872;6.190;2023-03-16T05:26:25;99598.70;;;0.79;82.44
63447;BME280;49577;49.872;6.190;2023-03-16T05:28:50;99601.95;;;0.80;82.48
63447;BME280;49577;49.872;6.190;2023-03-16T05:31:16;99604.66;;;0.82;82.64
63447;BME280;49577;49.872;6.190;2023-03-16T05:33:41;99606.04;;;0.82;82.52
63447;BME280;49577;49.872;6.190;2023-03-16T05:36:09;99604.98;;;0.83;82.82
63447;BME280;49577;49.872;6.190;2023-03-16T05:38:34;99599.26;;;0.85;82.81
63447;BME280;49577;49.872;6.190;2023-03-16T05:41:01;99597.50;;;0.87;82.83
63447;BME280;49577;49.872;6.190;2023-03-16T05:43:29;99597.48;;;0.88;82.77
63447;BME280;49577;49.872;6.190;2023-03-16T05:45:55;99593.88;;;0.87;82.78
63447;BME280;49577;49.872;6.190;2023-03-16T05:48:21;99588.55;;;0.87;82.78
63447;BME280;49577;49.872;6.190;2023-03-16T05:50:47;99587.63;;;0.90;82.94
63447;BME280;49577;49.872;6.190;2023-03-16T05:53:12;99584.81;;;0.92;82.87
63447;BME280;49577;49.872;6.190;2023-03-16T05:55:39;99585.61;;;0.95;82.90
63447;BME280;49577;49.872;6.190;2023-03-16T05:58:05;99585.39;;;0.96;82.83
63447;BME280;49577;49.872;6.190;2023-03-16T06:00:30;99581.13;;;0.95;83.01
63447;BME280;49577;49.872;6.190;2023-03-16T06:02:56;99590.07;;;0.96;82.95
63447;BME280;49577;49.872;6.190;2023-03-16T06:05:21;99591.21;;;0.97;83.00
63447;BME280;49577;49.872;6.190;2023-03-16T06:07:48;99594.58;;;1.01;82.96
63447;BME280;49577;49.872;6.190;2023-03-16T06:10:14;99595.72;;;1.04;82.99
63447;BME280;49577;49.872;6.190;2023-03-16T06:12:40;99596.15;;;1.07;83.08
63447;BME280;49577;49.872;6.190;2023-03-16T06:15:07;99599.29;;;1.12;82.92
63447;BME280;49577;49.872;6.190;2023-03-16T06:17:34;99601.02;;;1.19;83.01
63447;BME280;49577;49.872;6.190;2023-03-16T06:19:59;99596.19;;;1.27;82.99
63447;BME280;49577;49.872;6.190;2023-03-16T06:22:26;99595.84;;;1.34;82.77
63447;BME280;49577;49.872;6.190;2023-03-16T06:24:52;99602.36;;;1.41;82.68
63447;BME280;49577;49.872;6.190;2023-03-16T06:27:18;99608.14;;;1.51;82.71
63447;BME280;49577;49.872;6.190;2023-03-16T06:29:45;99601.27;;;1.63;82.82
63447;BME280;49577;49.872;6.190;2023-03-16T06:32:12;99597.36;;;1.74;82.33
63447;BME280;49577;49.872;6.190;2023-03-16T06:34:37;99598.48;;;1.84;82.08
63447;BME280;49577;49.872;6.190;2023-03-16T06:37:03;99605.10;;;1.93;81.95
63447;BME280;49577;49.872;6.190;2023-03-16T06:39:30;99606.19;;;2.04;81.94
63447;BME280;49577;49.872;6.190;2023-03-16T06:41:56;99604.64;;;2.16;81.52
63447;BME280;49577;49.872;6.190;2023-03-16T06:44:21;99604.35;;;2.27;81.35
63447;BME280;49577;49.872;6.190;2023-03-16T06:46:47;99609.77;;;2.36;81.20
63447;BME280;49577;49.872;6.190;2023-03-16T06:49:12;99613.45;;;2.45;81.05
63447;BME280;49577;49.872;6.190;2023-03-16T06:51:37;99610.73;;;2.56;80.82
63447;BME280;49577;49.872;6.190;2023-03-16T06:54:03;99613.00;;;2.66;80.58
63447;BME280;49577;49.872;6.190;2023-03-16T06:56:28;99616.93;;;2.67;80.28
63447;BME280;49577;49.872;6.190;2023-03-16T06:58:55;99610.70;;;2.67;80.15
63447;BME280;49577;49.872;6.190;2023-03-16T07:01:21;99606.75;;;2.67;79.94
63447;BME280;49577;49.872;6.190;2023-03-16T07:03:47;99604.36;;;2.66;79.89
63447;BME280;49577;49.872;6.190;2023-03-16T07:06:12;99606.91;;;2.68;79.66
63447;BME280;49577;49.872;6.190;2023-03-16T07:08:37;99603.28;;;2.69;79.50
63447;BME280;49577;49.872;6.190;2023-03-16T07:11:03;99606.33;;;2.70;79.45
63447;BME280;49577;49.872;6.190;2023-03-16T07:13:28;99608.92;;;2.75;79.78
63447;BME280;49577;49.872;6.190;2023-03-16T07:15:54;99611.95;;;2.83;79.73
63447;BME280;49577;49.872;6.190;2023-03-16T07:18:19;99610.17;;;2.91;79.64
63447;BME280;49577;49.872;6.190;2023-03-16T07:20:44;99606.37;;;2.97;79.55
63447;BME280;49577;49.872;6.190;2023-03-16T07:23:10;99603.61;;;3.07;79.66
63447;BME280;49577;49.872;6.190;2023-03-16T07:25:37;99606.09;;;3.16;78.67
63447;BME280;49577;49.872;6.190;2023-03-16T07:28:02;99608.80;;;3.17;78.20
63447;BME280;49577;49.872;6.190;2023-03-16T07:30:28;99611.23;;;3.22;78.57
63447;BME280;49577;49.872;6.190;2023-03-16T07:32:54;99605.87;;;3.28;78.40
63447;BME280;49577;49.872;6.190;2023-03-16T07:35:19;99600.26;;;3.36;78.15
63447;BME280;49577;49.872;6.190;2023-03-16T07:37:46;99596.10;;;3.41;77.79
63447;BME280;49577;49.872;6.190;2023-03-16T07:40:12;99599.66;;;3.48;77.83
63447;BME280;49577;49.872;6.190;2023-03-16T07:42:39;99603.70;;;3.57;77.56
63447;BME280;49577;49.872;6.190;2023-03-16T07:45:06;99600.91;;;3.63;77.59
63447;BME280;49577;49.872;6.190;2023-03-16T07:47:31;99599.27;;;3.75;77.58
63447;BME280;49577;49.872;6.190;2023-03-16T07:49:58;99594.86;;;3.97;77.48
63447;BME280;49577;49.872;6.190;2023-03-16T07:52:23;99589.65;;;4.26;77.02
63447;BME280;49577;49.872;6.190;2023-03-16T07:54:48;99590.98;;;4.73;76.71
63447;BME280;49577;49.872;6.190;2023-03-16T07:57:14;99586.73;;;5.23;75.16
63447;BME280;49577;49.872;6.190;2023-03-16T07:59:39;99581.69;;;5.80;74.01
63447;BME280;49577;49.872;6.190;2023-03-16T08:02:06;99577.69;;;6.24;72.81
63447;BME280;49577;49.872;6.190;2023-03-16T08:04:34;99575.52;;;6.53;72.01
63447;BME280;49577;49.872;6.190;2023-03-16T08:06:59;99574.27;;;6.60;71.18
63447;BME280;49577;49.872;6.190;2023-03-16T08:09:26;99577.76;;;6.68;70.75
63447;BME280;49577;49.872;6.190;2023-03-16T08:11:52;99574.27;;;6.75;70.55
63447;BME280;49577;49.872;6.190;2023-03-16T08:14:17;99574.86;;;6.92;69.93
63447;BME280;49577;49.872;6.190;2023-03-16T08:16:42;99577.77;;;7.21;69.24
63447;BME280;49577;49.872;6.190;2023-03-16T08:19:08;99577.23;;;7.87;68.63
63447;BME280;49577;49.872;6.190;2023-03-16T08:21:33;99577.02;;;9.48;66.71
63447;BME280;49577;49.872;6.190;2023-03-16T08:24:00;99573.33;;;11.36;63.84
63447;BME280;49577;49.872;6.190;2023-03-16T08:26:25;99567.95;;;13.13;59.74
63447;BME280;49577;49.872;6.190;2023-03-16T08:28:51;99573.08;;;14.57;56.36
63447;BME280;49577;49.872;6.190;2023-03-16T08:31:17;99567.95;;;15.65;53.25
63447;BME280;49577;49.872;6.190;2023-03-16T08:33:44;99568.67;;;16.87;51.10
63447;BME280;49577;49.872;6.190;2023-03-16T08:36:12;99571.45;;;17.59;48.03
63447;BME280;49577;49.872;6.190;2023-03-16T08:38:39;99568.65;;;17.59;46.13
63447;BME280;49577;49.872;6.190;2023-03-16T08:41:05;99565.37;;;18.04;45.99
63447;BME280;49577;49.872;6.190;2023-03-16T08:43:31;99563.44;;;18.81;44.32
63447;BME280;49577;49.872;6.190;2023-03-16T08:45:57;99548.48;;;19.62;41.88
63447;BME280;49577;49.872;6.190;2023-03-16T08:48:23;99543.16;;;20.09;39.04
63447;BME280;49577;49.872;6.190;2023-03-16T08:50:49;99540.42;;;20.40;39.25
63447;BME280;49577;49.872;6.190;2023-03-16T08:53:14;99539.23;;;20.57;37.03
63447;BME280;49577;49.872;6.190;2023-03-16T08:55:40;99530.86;;;20.23;36.19
63447;BME280;49577;49.872;6.190;2023-03-16T08:58:07;99527.30;;;19.03;36.64
63447;BME280;49577;49.872;6.190;2023-03-16T09:00:33;99529.64;;;18.02;37.45
63447;BME280;49577;49.872;6.190;2023-03-16T09:02:59;99531.98;;;17.73;37.89
63447;BME280;49577;49.872;6.190;2023-03-16T09:05:25;99534.28;;;18.29;36.82
63447;BME280;49577;49.872;6.190;2023-03-16T09:07:51;99534.30;;;18.50;36.24
63447;BME280;49577;49.872;6.190;2023-03-16T09:10:17;99536.34;;;18.96;35.55
63447;BME280;49577;49.872;6.190;2023-03-16T09:12:44;99532.52;;;18.97;34.70
63447;BME280;49577;49.872;6.190;2023-03-16T09:15:11;99534.13;;;19.24;34.90
63447;BME280;49577;49.872;6.190;2023-03-16T09:17:38;99533.10;;;19.05;33.85
63447;BME280;49577;49.872;6.190;2023-03-16T09:20:07;99536.80;;;18.24;33.88
63447;BME280;49577;49.872;6.190;2023-03-16T09:22:34;99533.85;;;17.86;35.37
63447;BME280;49577;49.872;6.190;2023-03-16T09:25:02;99536.27;;;18.11;34.85
63447;BME280;49577;49.872;6.190;2023-03-16T09:27:29;99526.39;;;17.59;34.73
63447;BME280;49577;49.872;6.190;2023-03-16T09:29:55;99520.48;;;17.16;35.44
63447;BME280;49577;49.872;6.190;2023-03-16T09:32:21;99522.09;;;17.06;35.78
63447;BME280;49577;49.872;6.190;2023-03-16T09:34:46;99519.97;;;16.61;35.71
63447;BME280;49577;49.872;6.190;2023-03-16T09:37:12;99525.39;;;15.79;36.13
63447;BME280;49577;49.872;6.190;2023-03-16T09:39:37;99521.13;;;14.99;37.16
63447;BME280;49577;49.872;6.190;2023-03-16T09:44:55;99517.23;;;14.96;38.00
63447;BME280;49577;49.872;6.190;2023-03-16T09:47:28;99512.27;;;15.98;37.43
63447;BME280;49577;49.872;6.190;2023-03-16T09:49:57;99512.44;;;16.86;36.67
63447;BME280;49577;49.872;6.190;2023-03-16T09:53:15;99510.03;;;17.05;35.34
63447;BME280;49577;49.872;6.190;2023-03-16T09:55:34;99510.05;;;16.85;35.35
63447;BME280;49577;49.872;6.190;2023-03-16T09:58:02;99502.20;;;16.84;35.91
63447;BME280;49577;49.872;6.190;2023-03-16T10:05:56;99506.88;;;17.90;33.00
63447;BME280;49577;49.872;6.190;2023-03-16T10:08:26;99501.63;;;18.14;33.10
63447;BME280;49577;49.872;6.190;2023-03-16T10:16:39;99488.78;;;19.74;31.22
63447;BME280;49577;49.872;6.190;2023-03-16T10:19:17;99486.83;;;19.98;30.80
63447;BME280;49577;49.872;6.190;2023-03-16T10:21:44;99480.06;;;20.00;29.42
63447;BME280;49577;49.872;6.190;2023-03-16T10:27:32;99472.31;;;19.77;28.94
63447;BME280;49577;49.872;6.190;2023-03-16T10:29:58;99478.34;;;19.64;29.10
63447;BME280;49577;49.872;6.190;2023-03-16T10:32:30;99473.76;;;19.60;29.16
63447;BME280;49577;49.872;6.190;2023-03-16T10:35:01;99470.59;;;19.65;29.09
63447;BME280;49577;49.872;6.190;2023-03-16T10:37:29;99468.69;;;19.61;29.82
63447;BME280;49577;49.872;6.190;2023-03-16T10:39:55;99461.88;;;19.91;29.91
63447;BME280;49577;49.872;6.190;2023-03-16T10:42:21;99460.01;;;20.21;29.09
63447;BME280;49577;49.872;6.190;2023-03-16T10:44:48;99459.21;;;20.20;28.73
63447;BME280;49577;49.872;6.190;2023-03-16T10:47:28;99462.43;;;19.89;28.64
63447;BME280;49577;49.872;6.190;2023-03-16T10:49:53;99463.55;;;19.49;28.83
63447;BME280;49577;49.872;6.190;2023-03-16T10:52:44;99468.30;;;19.07;29.06
63447;BME280;49577;49.872;6.190;2023-03-16T10:55:23;99458.86;;;18.50;29.61
63447;BME280;49577;49.872;6.190;2023-03-16T10:57:50;99459.76;;;18.18;29.77
63447;BME280;49577;49.872;6.190;2023-03-16T11:00:33;99462.92;;;17.66;29.88
63447;BME280;49577;49.872;6.190;2023-03-16T11:03:00;99458.66;;;17.36;30.56
63447;BME280;49577;49.872;6.190;2023-03-16T11:05:31;99457.85;;;17.24;30.62
63447;BME280;49577;49.872;6.190;2023-03-16T11:10:36;99453.04;;;16.92;31.14
63447;BME280;49577;49.872;6.190;2023-03-16T11:13:04;99444.73;;;16.71;30.81
63447;BME280;49577;49.872;6.190;2023-03-16T11:15:56;99440.00;;;16.60;30.83
63447;BME280;49577;49.872;6.190;2023-03-16T11:18:35;99435.93;;;16.84;30.54
63447;BME280;49577;49.872;6.190;2023-03-16T11:23:54;99436.21;;;17.62;29.16
63447;BME280;49577;49.872;6.190;2023-03-16T11:26:32;99427.04;;;18.32;29.26
63447;BME280;49577;49.872;6.190;2023-03-16T11:31:54;99422.29;;;20.00;27.45
63447;BME280;49577;49.872;6.190;2023-03-16T11:34:28;99425.66;;;20.50;26.99
63447;BME280;49577;49.872;6.190;2023-03-16T11:46:08;99400.92;;;22.52;25.10
63447;BME280;49577;49.872;6.190;2023-03-16T11:48:35;99390.39;;;22.67;25.13
63447;BME280;49577;49.872;6.190;2023-03-16T11:51:10;99383.03;;;22.74;24.75
63447;BME280;49577;49.872;6.190;2023-03-16T11:53:43;99381.68;;;22.75;24.54
63447;BME280;49577;49.872;6.190;2023-03-16T11:56:29;99379.53;;;22.69;24.40
63447;BME280;49577;49.872;6.190;2023-03-16T11:59:19;99373.63;;;22.60;24.15
63447;BME280;49577;49.872;6.190;2023-03-16T12:02:00;99361.84;;;22.44;23.63
63447;BME280;49577;49.872;6.190;2023-03-16T12:08:06;99374.52;;;21.70;24.18
63447;BME280;49577;49.872;6.190;2023-03-16T12:10:58;99368.46;;;21.72;24.19
63447;BME280;49577;49.872;6.190;2023-03-16T12:16:14;99352.02;;;22.35;24.36
63447;BME280;49577;49.872;6.190;2023-03-16T12:21:27;99344.95;;;22.36;24.33
63447;BME280;49577;49.872;6.190;2023-03-16T12:23:59;99340.73;;;21.86;24.10
63447;BME280;49577;49.872;6.190;2023-03-16T12:26:32;99345.39;;;21.22;25.11
63447;BME280;49577;49.872;6.190;2023-03-16T12:29:02;99338.44;;;20.87;25.38
63447;BME280;49577;49.872;6.190;2023-03-16T12:31:48;99338.10;;;20.49;25.49
63447;BME280;49577;49.872;6.190;2023-03-16T12:34:38;99330.37;;;20.32;26.23
63447;BME280;49577;49.872;6.190;2023-03-16T12:37:48;99320.34;;;19.94;25.98
63447;BME280;49577;49.872;6.190;2023-03-16T12:40:12;99322.33;;;19.13;26.94
63447;BME280;49577;49.872;6.190;2023-03-16T12:48:14;99305.54;;;18.43;27.91
63447;BME280;49577;49.872;6.190;2023-03-16T12:50:57;99308.63;;;18.10;27.80
63447;BME280;49577;49.872;6.190;2023-03-16T12:55:54;99304.29;;;17.57;29.21
63447;BME280;49577;49.872;6.190;2023-03-16T12:58:23;99300.56;;;17.24;29.17
63447;BME280;49577;49.872;6.190;2023-03-16T13:00:57;99296.13;;;16.91;29.96
63447;BME280;49577;49.872;6.190;2023-03-16T13:03:24;99296.29;;;16.62;29.69
63447;BME280;49577;49.872;6.190;2023-03-16T13:05:53;99293.95;;;16.24;29.91
63447;BME280;49577;49.872;6.190;2023-03-16T13:08:20;99292.48;;;16.02;30.67
63447;BME280;49577;49.872;6.190;2023-03-16T13:13:26;99286.44;;;16.00;30.89
63447;BME280;49577;49.872;6.190;2023-03-16T13:16:02;99279.62;;;15.86;31.28
63447;BME280;49577;49.872;6.190;2023-03-16T13:18:37;99277.84;;;15.69;31.66
63447;BME280;49577;49.872;6.190;2023-03-16T13:21:18;99275.73;;;15.63;31.72
63447;BME280;49577;49.872;6.190;2023-03-16T13:23:51;99282.54;;;15.61;31.72
63447;BME280;49577;49.872;6.190;2023-03-16T13:26:29;99281.16;;;15.58;32.10
63447;BME280;49577;49.872;6.190;2023-03-16T13:29:06;99279.13;;;15.66;32.21
63447;BME280;49577;49.872;6.190;2023-03-16T13:31:40;99273.02;;;15.63;32.11
63447;BME280;49577;49.872;6.190;2023-03-16T13:34:12;99269.86;;;15.53;32.35
63447;BME280;49577;49.872;6.190;2023-03-16T13:36:38;99275.77;;;15.46;32.56
63447;BME280;49577;49.872;6.190;2023-03-16T13:39:14;99267.95;;;15.35;32.52
63447;BME280;49577;49.872;6.190;2023-03-16T13:41:41;99268.14;;;15.23;33.07
63447;BME280;49577;49.872;6.190;2023-03-16T13:44:14;99261.61;;;15.25;33.12
63447;BME280;49577;49.872;6.190;2023-03-16T13:46:39;99251.63;;;15.29;32.95
63447;BME280;49577;49.872;6.190;2023-03-16T13:49:05;99251.13;;;15.40;33.14
63447;BME280;49577;49.872;6.190;2023-03-16T13:51:33;99238.50;;;15.46;33.08
63447;BME280;49577;49.872;6.190;2023-03-16T13:54:03;99241.42;;;15.47;33.05
63447;BME280;49577;49.872;6.190;2023-03-16T13:56:30;99239.30;;;15.42;32.59
63447;BME280;49577;49.872;6.190;2023-03-16T13:58:57;99234.37;;;15.38;33.28
63447;BME280;49577;49.872;6.190;2023-03-16T14:01:25;99229.41;;;15.31;32.45
63447;BME280;49577;49.872;6.190;2023-03-16T14:03:51;99226.48;;;15.10;32.48
63447;BME280;49577;49.872;6.190;2023-03-16T14:06:26;99216.71;;;14.95;32.39
63447;BME280;49577;49.872;6.190;2023-03-16T14:08:56;99213.29;;;14.84;32.69
63447;BME280;49577;49.872;6.190;2023-03-16T14:11:24;99206.84;;;14.65;33.09
63447;BME280;49577;49.872;6.190;2023-03-16T14:13:52;99211.52;;;14.52;33.74